sensor_id;sensor_type;location;lat;lon;timestamp;temperature;humidity
71627;DHT22;59475;52.464;13.590;2023-02-28T00:01:19;0.66;84.81
71627;DHT22;59475;52.464;13.590;2023-02-28T00:03:44;0.63;84.87
71627;DHT22;59475;52.464;13.590;2023-02-28T00:06:10;0.65;84.93
71627;DHT22;59475;52.464;13.590;2023-02-28T00:08:36;0.69;85.04
71627;DHT22;59475;52.464;13.590;2023-02-28T00:11:08;0.65;85.05
71627;DHT22;59475;52.464;13.590;2023-02-28T00:13:35;0.62;85.02
71627;DHT22;59475;52.464;13.590;2023-02-28T00:16:07;0.62;84.86
71627;DHT22;59475;52.464;13.590;2023-02-28T00:18:34;0.63;84.29
71627;DHT22;59475;52.464;13.590;2023-02-28T00:20:59;0.69;84.58
71627;DHT22;59475;52.464;13.590;2023-02-28T00:23:26;0.69;84.72
71627;DHT22;59475;52.464;13.590;2023-02-28T00:25:52;0.65;84.70
71627;DHT22;59475;52.464;13.590;2023-02-28T00:28:17;0.66;84.95
71627;DHT22;59475;52.464;13.590;2023-02-28T00:30:43;0.65;84.95
71627;DHT22;59475;52.464;13.590;2023-02-28T00:33:08;0.63;84.77
71627;DHT22;59475;52.464;13.590;2023-02-28T00:35:34;0.63;84.62
71627;DHT22;59475;52.464;13.590;2023-02-28T00:37:59;0.62;85.11
71627;DHT22;59475;52.464;13.590;2023-02-28T00:40:24;0.63;85.08
71627;DHT22;59475;52.464;13.590;2023-02-28T00:42:50;0.58;85.30
71627;DHT22;59475;52.464;13.590;2023-02-28T00:45:15;0.55;85.22
71627;DHT22;59475;52.464;13.590;2023-02-28T00:47:41;0.58;85.18
71627;DHT22;59475;52.464;13.590;2023-02-28T00:50:06;0.54;85.36
71627;DHT22;59475;52.464;13.590;2023-02-28T00:52:32;0.54;85.38
71627;DHT22;59475;52.464;13.590;2023-02-28T00:54:58;0.52;85.41
71627;DHT22;59475;52.464;13.590;2023-02-28T00:57:23;0.54;85.41
71627;DHT22;59475;52.464;13.590;2023-02-28T00:59:48;0.51;85.50
71627;DHT22;59475;52.464;13.590;2023-02-28T01:02:14;0.51;85.54
71627;DHT22;59475;52.464;13.590;2023-02-28T01:04:39;0.46;85.90
71627;DHT22;59475;52.464;13.590;2023-02-28T01:07:05;0.42;86.10
71627;DHT22;59475;52.464;13.590;2023-02-28T01:09:30;0.38;86.08
71627;DHT22;59475;52.464;13.590;2023-02-28T01:11:56;0.34;86.06
71627;DHT22;59475;52.464;13.590;2023-02-28T01:14:21;0.32;85.86
71627;DHT22;59475;52.464;13.590;2023-02-28T01:16:47;0.25;85.93
71627;DHT22;59475;52.464;13.590;2023-02-28T01:19:13;0.17;86.00
71627;DHT22;59475;52.464;13.590;2023-02-28T01:21:38;0.11;86.00
71627;DHT22;59475;52.464;13.590;2023-02-28T01:24:04;0.07;86.61
71627;DHT22;59475;52.464;13.590;2023-02-28T01:26:30;-0.02;86.87
71627;DHT22;59475;52.464;13.590;2023-02-28T01:28:55;-0.09;86.94
71627;DHT22;59475;52.464;13.590;2023-02-28T01:31:21;-0.17;87.06
71627;DHT22;59475;52.464;13.590;2023-02-28T01:33:47;-0.24;87.01
71627;DHT22;59475;52.464;13.590;2023-02-28T01:36:15;-0.31;86.67
71627;DHT22;59475;52.464;13.590;2023-02-28T01:38:42;-0.38;87.14
71627;DHT22;59475;52.464;13.590;2023-02-28T01:41:14;-0.48;87.67
71627;DHT22;59475;52.464;13.590;2023-02-28T01:46:14;-0.54;87.89
71627;DHT22;59475;52.464;13.590;2023-02-28T01:48:49;-0.61;87.98
71627;DHT22;59475;52.464;13.590;2023-02-28T01:51:33;-0.68;88.22
71627;DHT22;59475;52.464;13.590;2023-02-28T01:54:03;-0.75;88.79
71627;DHT22;59475;52.464;13.590;2023-02-28T01:56:33;-0.78;89.07
71627;DHT22;59475;52.464;13.590;2023-02-28T01:59:00;-0.79;89.14
71627;DHT22;59475;52.464;13.590;2023-02-28T02:01:27;-0.79;88.97
71627;DHT22;59475;52.464;13.590;2023-02-28T02:04:01;-0.79;88.86
71627;DHT22;59475;52.464;13.590;2023-02-28T02:06:40;-0.75;88.70
71627;DHT22;59475;52.464;13.590;2023-02-28T02:09:05;-0.75;88.84
71627;DHT22;59475;52.464;13.590;2023-02-28T02:11:32;-0.82;89.22
71627;DHT22;59475;52.464;13.590;2023-02-28T02:35:43;-1.37;90.07
71627;DHT22;59475;52.464;13.590;2023-02-28T02:46:34;-1.58;90.70
71627;DHT22;59475;52.464;13.590;2023-02-28T02:49:06;-1.63;90.86
71627;DHT22;59475;52.464;13.590;2023-02-28T02:51:33;-1.73;91.11
71627;DHT22;59475;52.464;13.590;2023-02-28T02:54:05;-1.78;90.90
71627;DHT22;59475;52.464;13.590;2023-02-28T02:56:34;-1.82;91.09
71627;DHT22;59475;52.464;13.590;2023-02-28T02:59:03;-1.89;91.24
71627;DHT22;59475;52.464;13.590;2023-02-28T03:01:30;-1.89;91.22
71627;DHT22;59475;52.464;13.590;2023-02-28T03:04:12;-1.97;91.44
71627;DHT22;59475;52.464;13.590;2023-02-28T03:06:38;-2.04;91.15
71627;DHT22;59475;52.464;13.590;2023-02-28T03:09:04;-2.07;91.14
71627;DHT22;59475;52.464;13.590;2023-02-28T03:11:30;-2.09;90.98
71627;DHT22;59475;52.464;13.590;2023-02-28T03:25:14;-2.37;90.48
71627;DHT22;59475;52.464;13.590;2023-02-28T03:33:11;-2.47;91.02
71627;DHT22;59475;52.464;13.590;2023-02-28T03:35:41;-2.51;90.90
71627;DHT22;59475;52.464;13.590;2023-02-28T03:38:14;-2.54;90.94
71627;DHT22;59475;52.464;13.590;2023-02-28T03:40:47;-2.58;90.79
71627;DHT22;59475;52.464;13.590;2023-02-28T03:43:30;-2.65;90.63
71627;DHT22;59475;52.464;13.590;2023-02-28T03:45:59;-2.68;90.66
71627;DHT22;59475;52.464;13.590;2023-02-28T03:48:32;-2.72;90.99
71627;DHT22;59475;52.464;13.590;2023-02-28T03:51:01;-2.73;91.03
71627;DHT22;59475;52.464;13.590;2023-02-28T03:56:09;-2.80;90.90
71627;DHT22;59475;52.464;13.590;2023-02-28T03:58:47;-2.82;90.87
71627;DHT22;59475;52.464;13.590;2023-02-28T04:01:20;-2.86;90.93
71627;DHT22;59475;52.464;13.590;2023-02-28T04:03:46;-2.89;91.13
71627;DHT22;59475;52.464;13.590;2023-02-28T04:06:22;-2.89;90.97
71627;DHT22;59475;52.464;13.590;2023-02-28T04:08:49;-2.92;90.94
71627;DHT22;59475;52.464;13.590;2023-02-28T04:11:25;-2.93;90.93
71627;DHT22;59475;52.464;13.590;2023-02-28T04:13:53;-2.96;90.93
71627;DHT22;59475;52.464;13.590;2023-02-28T04:16:18;-2.96;91.82
71627;DHT22;59475;52.464;13.590;2023-02-28T04:18:44;-2.99;91.95
71627;DHT22;59475;52.464;13.590;2023-02-28T04:21:10;-3.03;91.71
71627;DHT22;59475;52.464;13.590;2023-02-28T04:23:36;-3.07;91.73
71627;DHT22;59475;52.464;13.590;2023-02-28T04:26:01;-3.10;91.83
71627;DHT22;59475;52.464;13.590;2023-02-28T04:28:27;-3.17;91.56
71627;DHT22;59475;52.464;13.590;2023-02-28T04:31:01;-3.21;91.61
71627;DHT22;59475;52.464;13.590;2023-02-28T04:33:27;-3.25;91.49
71627;DHT22;59475;52.464;13.590;2023-02-28T04:36:00;-3.31;91.42
71627;DHT22;59475;52.464;13.590;2023-02-28T04:38:25;-3.30;91.75
71627;DHT22;59475;52.464;13.590;2023-02-28T04:40:51;-3.31;91.71
71627;DHT22;59475;52.464;13.590;2023-02-28T04:43:16;-3.34;91.88
71627;DHT22;59475;52.464;13.590;2023-02-28T04:45:41;-3.34;91.65
71627;DHT22;59475;52.464;13.590;2023-02-28T04:48:07;-3.40;91.54
71627;DHT22;59475;52.464;13.590;2023-02-28T04:50:32;-3.45;91.49
71627;DHT22;59475;52.464;13.590;2023-02-28T04:52:58;-3.45;91.52
71627;DHT22;59475;52.464;13.590;2023-02-28T04:55:23;-3.45;91.52
71627;DHT22;59475;52.464;13.590;2023-02-28T04:57:48;-3.50;91.52
71627;DHT22;59475;52.464;13.590;2023-02-28T05:00:14;-3.52;91.56
71627;DHT22;59475;52.464;13.590;2023-02-28T05:02:42;-3.54;91.55
71627;DHT22;59475;52.464;13.590;2023-02-28T05:05:07;-3.56;91.62
71627;DHT22;59475;52.464;13.590;2023-02-28T05:07:33;-3.58;91.53
71627;DHT22;59475;52.464;13.590;2023-02-28T05:09:58;-3.62;91.54
71627;DHT22;59475;52.464;13.590;2023-02-28T05:12:23;-3.62;91.69
71627;DHT22;59475;52.464;13.590;2023-02-28T05:14:49;-3.62;91.78
71627;DHT22;59475;52.464;13.590;2023-02-28T05:17:14;-3.62;92.09
71627;DHT22;59475;52.464;13.590;2023-02-28T05:19:40;-3.63;92.70
71627;DHT22;59475;52.464;13.590;2023-02-28T05:22:13;-3.63;92.72
71627;DHT22;59475;52.464;13.590;2023-02-28T05:24:39;-3.65;92.49
71627;DHT22;59475;52.464;13.590;2023-02-28T05:27:04;-3.68;92.23
71627;DHT22;59475;52.464;13.590;2023-02-28T05:29:30;-3.70;92.57
71627;DHT22;59475;52.464;13.590;2023-02-28T05:31:55;-3.72;92.73
71627;DHT22;59475;52.464;13.590;2023-02-28T05:34:20;-3.72;92.45
71627;DHT22;59475;52.464;13.590;2023-02-28T05:36:46;-3.75;92.59
71627;DHT22;59475;52.464;13.590;2023-02-28T05:39:11;-3.76;92.41
71627;DHT22;59475;52.464;13.590;2023-02-28T05:41:39;-3.78;92.54
71627;DHT22;59475;52.464;13.590;2023-02-28T05:44:05;-3.82;92.28
71627;DHT22;59475;52.464;13.590;2023-02-28T05:46:30;-3.85;92.32
71627;DHT22;59475;52.464;13.590;2023-02-28T05:48:56;-3.91;92.41
71627;DHT22;59475;52.464;13.590;2023-02-28T05:51:22;-3.90;92.62
71627;DHT22;59475;52.464;13.590;2023-02-28T05:53:48;-3.90;92.53
71627;DHT22;59475;52.464;13.590;2023-02-28T05:56:14;-3.89;92.44
71627;DHT22;59475;52.464;13.590;2023-02-28T05:58:39;-3.91;92.32
71627;DHT22;59475;52.464;13.590;2023-02-28T06:03:48;-3.94;92.28
71627;DHT22;59475;52.464;13.590;2023-02-28T06:06:13;-3.96;92.23
71627;DHT22;59475;52.464;13.590;2023-02-28T06:08:39;-3.94;92.26
71627;DHT22;59475;52.464;13.590;2023-02-28T06:11:04;-3.96;92.11
71627;DHT22;59475;52.464;13.590;2023-02-28T06:13:30;-4.00;92.15
71627;DHT22;59475;52.464;13.590;2023-02-28T06:15:55;-3.99;92.41
71627;DHT22;59475;52.464;13.590;2023-02-28T06:18:20;-3.96;92.44
71627;DHT22;59475;52.464;13.590;2023-02-28T06:20:53;-3.96;92.75
71627;DHT22;59475;52.464;13.590;2023-02-28T06:23:19;-3.91;92.68
71627;DHT22;59475;52.464;13.590;2023-02-28T06:25:46;-3.90;92.81
71627;DHT22;59475;52.464;13.590;2023-02-28T06:28:11;-3.85;92.80
71627;DHT22;59475;52.464;13.590;2023-02-28T06:30:37;-3.82;92.83
71627;DHT22;59475;52.464;13.590;2023-02-28T06:33:05;-3.73;92.87
71627;DHT22;59475;52.464;13.590;2023-02-28T06:35:30;-3.66;92.95
71627;DHT22;59475;52.464;13.590;2023-02-28T06:37:56;-3.47;92.81
71627;DHT22;59475;52.464;13.590;2023-02-28T06:40:21;-3.21;92.70
71627;DHT22;59475;52.464;13.590;2023-02-28T06:42:46;-3.00;92.66
71627;DHT22;59475;52.464;13.590;2023-02-28T06:45:12;-2.70;92.60
71627;DHT22;59475;52.464;13.590;2023-02-28T06:47:39;-2.48;92.25
71627;DHT22;59475;52.464;13.590;2023-02-28T06:50:06;-2.24;91.56
71627;DHT22;59475;52.464;13.590;2023-02-28T06:52:33;-1.99;91.02
71627;DHT22;59475;52.464;13.590;2023-02-28T06:55:01;-1.73;90.48
71627;DHT22;59475;52.464;13.590;2023-02-28T06:57:28;-1.48;90.47
71627;DHT22;59475;52.464;13.590;2023-02-28T06:59:57;-1.16;90.26
71627;DHT22;59475;52.464;13.590;2023-02-28T07:02:22;-0.82;89.59
71627;DHT22;59475;52.464;13.590;2023-02-28T07:04:47;-0.58;88.30
71627;DHT22;59475;52.464;13.590;2023-02-28T07:07:13;-0.34;88.84
71627;DHT22;59475;52.464;13.590;2023-02-28T07:09:38;-0.13;88.00
71627;DHT22;59475;52.464;13.590;2023-02-28T07:12:04;0.01;84.89
71627;DHT22;59475;52.464;13.590;2023-02-28T07:14:29;0.41;85.39
71627;DHT22;59475;52.464;13.590;2023-02-28T07:16:54;0.70;84.55
71627;DHT22;59475;52.464;13.590;2023-02-28T07:19:20;1.00;84.16
71627;DHT22;59475;52.464;13.590;2023-02-28T07:21:45;1.21;81.73
71627;DHT22;59475;52.464;13.590;2023-02-28T07:24:11;1.35;81.62
71627;DHT22;59475;52.464;13.590;2023-02-28T07:26:36;1.45;82.61
71627;DHT22;59475;52.464;13.590;2023-02-28T07:29:01;1.63;85.24
71627;DHT22;59475;52.464;13.590;2023-02-28T07:54:51;3.73;75.94
71627;DHT22;59475;52.464;13.590;2023-02-28T07:57:17;3.85;70.96
71627;DHT22;59475;52.464;13.590;2023-02-28T07:59:43;3.99;70.55
71627;DHT22;59475;52.464;13.590;2023-02-28T08:02:13;3.92;66.51
71627;DHT22;59475;52.464;13.590;2023-02-28T08:04:39;3.79;66.53
71627;DHT22;59475;52.464;13.590;2023-02-28T08:07:04;3.68;67.48
71627;DHT22;59475;52.464;13.590;2023-02-28T08:09:30;3.71;70.02
71627;DHT22;59475;52.464;13.590;2023-02-28T08:11:55;3.87;69.13
71627;DHT22;59475;52.464;13.590;2023-02-28T08:14:21;4.00;67.34
71627;DHT22;59475;52.464;13.590;2023-02-28T08:16:46;4.09;67.14
71627;DHT22;59475;52.464;13.590;2023-02-28T08:19:12;4.30;66.25
71627;DHT22;59475;52.464;13.590;2023-02-28T08:21:37;4.55;65.75
71627;DHT22;59475;52.464;13.590;2023-02-28T08:24:02;4.71;62.13
71627;DHT22;59475;52.464;13.590;2023-02-28T08:26:28;4.75;63.81
71627;DHT22;59475;52.464;13.590;2023-02-28T08:28:53;4.95;63.15
71627;DHT22;59475;52.464;13.590;2023-02-28T08:31:18;5.17;61.37
71627;DHT22;59475;52.464;13.590;2023-02-28T08:33:45;5.30;60.15
71627;DHT22;59475;52.464;13.590;2023-02-28T08:36:11;5.31;60.69
71627;DHT22;59475;52.464;13.590;2023-02-28T08:38:37;5.50;58.91
71627;DHT22;59475;52.464;13.590;2023-02-28T08:41:05;5.82;58.03
71627;DHT22;59475;52.464;13.590;2023-02-28T08:43:33;6.02;56.85
71627;DHT22;59475;52.464;13.590;2023-02-28T08:45:59;6.23;54.46
71627;DHT22;59475;52.464;13.590;2023-02-28T08:48:28;6.03;53.85
71627;DHT22;59475;52.464;13.590;2023-02-28T08:51:03;5.65;53.75
71627;DHT22;59475;52.464;13.590;2023-02-28T08:53:29;5.41;55.44
71627;DHT22;59475;52.464;13.590;2023-02-28T08:56:09;5.52;53.69
71627;DHT22;59475;52.464;13.590;2023-02-28T08:58:35;5.66;53.80
71627;DHT22;59475;52.464;13.590;2023-02-28T09:01:07;6.06;54.65
71627;DHT22;59475;52.464;13.590;2023-02-28T09:03:33;6.44;53.68
71627;DHT22;59475;52.464;13.590;2023-02-28T09:06:00;6.42;51.13
71627;DHT22;59475;52.464;13.590;2023-02-28T09:08:28;6.48;53.18
71627;DHT22;59475;52.464;13.590;2023-02-28T09:10:54;6.68;54.00
71627;DHT22;59475;52.464;13.590;2023-02-28T09:13:22;6.61;52.11
71627;DHT22;59475;52.464;13.590;2023-02-28T09:15:47;6.82;50.23
71627;DHT22;59475;52.464;13.590;2023-02-28T09:18:12;7.12;46.93
71627;DHT22;59475;52.464;13.590;2023-02-28T09:20:39;7.23;49.18
71627;DHT22;59475;52.464;13.590;2023-02-28T09:23:08;7.34;48.20
71627;DHT22;59475;52.464;13.590;2023-02-28T09:25:34;7.31;48.32
71627;DHT22;59475;52.464;13.590;2023-02-28T09:28:00;7.47;46.97
71627;DHT22;59475;52.464;13.590;2023-02-28T09:30:25;7.34;46.10
71627;DHT22;59475;52.464;13.590;2023-02-28T09:32:51;7.17;46.73
71627;DHT22;59475;52.464;13.590;2023-02-28T09:35:23;7.30;46.96
71627;DHT22;59475;52.464;13.590;2023-02-28T09:37:50;7.58;47.49
71627;DHT22;59475;52.464;13.590;2023-02-28T09:40:18;7.57;44.12
71627;DHT22;59475;52.464;13.590;2023-02-28T09:42:45;7.38;43.08
71627;DHT22;59475;52.464;13.590;2023-02-28T09:45:26;7.59;45.40
71627;DHT22;59475;52.464;13.590;2023-02-28T09:47:57;7.74;45.38
71627;DHT22;59475;52.464;13.590;2023-02-28T09:52:53;8.34;43.37
71627;DHT22;59475;52.464;13.590;2023-02-28T09:55:30;8.82;40.66
71627;DHT22;59475;52.464;13.590;2023-02-28T09:57:57;8.45;39.89
71627;DHT22;59475;52.464;13.590;2023-02-28T10:00:36;8.54;41.52
71627;DHT22;59475;52.464;13.590;2023-02-28T10:05:41;8.61;42.19
71627;DHT22;59475;52.464;13.590;2023-02-28T10:08:27;7.76;41.55
71627;DHT22;59475;52.464;13.590;2023-02-28T10:11:07;7.47;42.31
71627;DHT22;59475;52.464;13.590;2023-02-28T10:13:56;7.86;42.23
71627;DHT22;59475;52.464;13.590;2023-02-28T10:19:33;8.78;39.56
71627;DHT22;59475;52.464;13.590;2023-02-28T10:22:03;8.54;39.90
71627;DHT22;59475;52.464;13.590;2023-02-28T10:24:44;8.20;41.74
71627;DHT22;59475;52.464;13.590;2023-02-28T10:27:18;7.52;42.08
71627;DHT22;59475;52.464;13.590;2023-02-28T10:29:52;6.65;44.42
71627;DHT22;59475;52.464;13.590;2023-02-28T10:32:21;6.68;44.07
71627;DHT22;59475;52.464;13.590;2023-02-28T10:34:55;6.81;43.80
71627;DHT22;59475;52.464;13.590;2023-02-28T10:37:22;6.89;44.38
71627;DHT22;59475;52.464;13.590;2023-02-28T10:39:47;6.65;44.58
71627;DHT22;59475;52.464;13.590;2023-02-28T10:42:31;6.30;44.90
71627;DHT22;59475;52.464;13.590;2023-02-28T10:45:23;6.38;45.18
71627;DHT22;59475;52.464;13.590;2023-02-28T10:50:43;7.31;43.13
71627;DHT22;59475;52.464;13.590;2023-02-28T10:53:17;7.52;43.51
71627;DHT22;59475;52.464;13.590;2023-02-28T11:04:16;6.02;44.89
71627;DHT22;59475;52.464;13.590;2023-02-28T11:06:43;5.83;46.22
71627;DHT22;59475;52.464;13.590;2023-02-28T11:09:38;6.16;45.80
71627;DHT22;59475;52.464;13.590;2023-02-28T11:12:07;6.71;44.67
71627;DHT22;59475;52.464;13.590;2023-02-28T11:14:41;6.52;43.03
71627;DHT22;59475;52.464;13.590;2023-02-28T11:17:24;6.64;44.84
71627;DHT22;59475;52.464;13.590;2023-02-28T11:19:53;6.76;43.29
71627;DHT22;59475;52.464;13.590;2023-02-28T11:22:27;7.07;42.75
71627;DHT22;59475;52.464;13.590;2023-02-28T11:24:56;7.41;42.23
71627;DHT22;59475;52.464;13.590;2023-02-28T11:30:00;6.49;43.30
71627;DHT22;59475;52.464;13.590;2023-02-28T11:32:29;6.37;44.85
71627;DHT22;59475;52.464;13.590;2023-02-28T11:35:17;6.64;43.74
71627;DHT22;59475;52.464;13.590;2023-02-28T11:37:44;7.07;43.74
71627;DHT22;59475;52.464;13.590;2023-02-28T11:40:31;7.10;43.26
71627;DHT22;59475;52.464;13.590;2023-02-28T11:43:30;7.52;43.29
71627;DHT22;59475;52.464;13.590;2023-02-28T11:54:35;6.18;45.16
71627;DHT22;59475;52.464;13.590;2023-02-28T12:00:19;6.45;44.75
71627;DHT22;59475;52.464;13.590;2023-02-28T12:03:11;6.72;43.52
71627;DHT22;59475;52.464;13.590;2023-02-28T12:05:53;6.17;44.83
71627;DHT22;59475;52.464;13.590;2023-02-28T12:08:44;6.02;45.45
71627;DHT22;59475;52.464;13.590;2023-02-28T12:11:45;6.10;45.99
71627;DHT22;59475;52.464;13.590;2023-02-28T12:28:13;6.51;45.07
71627;DHT22;59475;52.464;13.590;2023-02-28T12:30:49;6.16;45.35
71627;DHT22;59475;52.464;13.590;2023-02-28T12:33:19;6.24;44.49
71627;DHT22;59475;52.464;13.590;2023-02-28T12:38:19;6.14;46.75
71627;DHT22;59475;52.464;13.590;2023-02-28T12:41:03;6.33;45.16
71627;DHT22;59475;52.464;13.590;2023-02-28T12:44:02;6.24;45.14
71627;DHT22;59475;52.464;13.590;2023-02-28T12:46:49;6.06;45.45
71627;DHT22;59475;52.464;13.590;2023-02-28T12:49:23;5.92;45.17
71627;DHT22;59475;52.464;13.590;2023-02-28T12:51:52;5.76;46.94
71627;DHT22;59475;52.464;13.590;2023-02-28T12:54:27;6.03;47.22
71627;DHT22;59475;52.464;13.590;2023-02-28T12:57:06;5.82;46.51
71627;DHT22;59475;52.464;13.590;2023-02-28T13:02:54;5.48;46.29
71627;DHT22;59475;52.464;13.590;2023-02-28T13:05:29;5.41;47.43
71627;DHT22;59475;52.464;13.590;2023-02-28T13:10:49;5.78;45.87
71627;DHT22;59475;52.464;13.590;2023-02-28T13:13:21;5.61;47.07
71627;DHT22;59475;52.464;13.590;2023-02-28T13:16:16;5.66;46.80
71627;DHT22;59475;52.464;13.590;2023-02-28T13:18:44;5.41;47.04
71627;DHT22;59475;52.464;13.590;2023-02-28T13:21:26;5.33;47.04
71627;DHT22;59475;52.464;13.590;2023-02-28T13:28:59;5.62;47.44
71627;DHT22;59475;52.464;13.590;2023-02-28T13:31:25;5.86;47.08
71627;DHT22;59475;52.464;13.590;2023-02-28T13:36:25;6.10;46.29
71627;DHT22;59475;52.464;13.590;2023-02-28T13:38:52;6.16;46.05
71627;DHT22;59475;52.464;13.590;2023-02-28T13:44:15;6.37;46.66
71627;DHT22;59475;52.464;13.590;2023-02-28T14:02:45;6.05;47.46
71627;DHT22;59475;52.464;13.590;2023-02-28T14:05:19;5.99;46.47
71627;DHT22;59475;52.464;13.590;2023-02-28T14:07:53;6.03;47.11
71627;DHT22;59475;52.464;13.590;2023-02-28T14:10:23;6.05;46.62
71627;DHT22;59475;52.464;13.590;2023-02-28T14:12:58;6.05;45.73
71627;DHT22;59475;52.464;13.590;2023-02-28T14:17:59;5.99;47.68
71627;DHT22;59475;52.464;13.590;2023-02-28T14:20:30;5.96;47.73
71627;DHT22;59475;52.464;13.590;2023-02-28T14:28:18;5.65;48.12
71627;DHT22;59475;52.464;13.590;2023-02-28T14:34:20;5.58;48.49
71627;DHT22;59475;52.464;13.590;2023-02-28T14:36:39;5.50;49.54
71627;DHT22;59475;52.464;13.590;2023-02-28T14:39:13;5.47;49.14
71627;DHT22;59475;52.464;13.590;2023-02-28T14:41:41;5.37;48.91
71627;DHT22;59475;52.464;13.590;2023-02-28T14:44:23;5.44;49.65
71627;DHT22;59475;52.464;13.590;2023-02-28T14:46:54;5.51;49.39
71627;DHT22;59475;52.464;13.590;2023-02-28T14:49:29;5.54;49.17
71627;DHT22;59475;52.464;13.590;2023-02-28T14:54:28;5.45;49.68
71627;DHT22;59475;52.464;13.590;2023-02-28T14:56:54;5.50;49.67
71627;DHT22;59475;52.464;13.590;2023-02-28T14:59:31;5.48;48.89
71627;DHT22;59475;52.464;13.590;2023-02-28T15:02:18;5.42;49.67
71627;DHT22;59475;52.464;13.590;2023-02-28T15:04:52;5.50;50.02
71627;DHT22;59475;52.464;13.590;2023-02-28T15:07:17;5.44;49.78
71627;DHT22;59475;52.464;13.590;2023-02-28T15:09:43;5.48;49.84
71627;DHT22;59475;52.464;13.590;2023-02-28T15:12:13;5.50;49.12
71627;DHT22;59475;52.464;13.590;2023-02-28T15:14:42;5.42;49.48
71627;DHT22;59475;52.464;13.590;2023-02-28T15:17:15;5.35;49.75
71627;DHT22;59475;52.464;13.590;2023-02-28T15:19:52;5.33;50.36
71627;DHT22;59475;52.464;13.590;2023-02-28T15:22:23;5.23;50.65
71627;DHT22;59475;52.464;13.590;2023-02-28T15:24:54;5.19;50.47
71627;DHT22;59475;52.464;13.590;2023-02-28T15:27:20;5.17;50.96
71627;DHT22;59475;52.464;13.590;2023-02-28T15:29:49;5.17;50.82
71627;DHT22;59475;52.464;13.590;2023-02-28T15:32:37;5.10;51.17
71627;DHT22;59475;52.464;13.590;2023-02-28T15:37:53;5.04;51.40
71627;DHT22;59475;52.464;13.590;2023-02-28T15:40:38;5.00;50.93
71627;DHT22;59475;52.464;13.590;2023-02-28T15:43:27;4.93;51.57
71627;DHT22;59475;52.464;13.590;2023-02-28T15:46:02;4.96;51.49
71627;DHT22;59475;52.464;13.590;2023-02-28T15:51:00;4.93;51.59
71627;DHT22;59475;52.464;13.590;2023-02-28T15:53:31;4.89;51.71
71627;DHT22;59475;52.464;13.590;2023-02-28T15:56:06;4.78;51.96
71627;DHT22;59475;52.464;13.590;2023-02-28T15:58:38;4.69;52.48
71627;DHT22;59475;52.464;13.590;2023-02-28T16:01:18;4.64;52.65
71627;DHT22;59475;52.464;13.590;2023-02-28T16:03:47;4.64;53.20
71627;DHT22;59475;52.464;13.590;2023-02-28T16:08:42;4.58;53.17
71627;DHT22;59475;52.464;13.590;2023-02-28T16:11:10;4.58;52.85
71627;DHT22;59475;52.464;13.590;2023-02-28T16:13:36;4.57;52.61
71627;DHT22;59475;52.464;13.590;2023-02-28T16:16:01;4.40;53.19
71627;DHT22;59475;52.464;13.590;2023-02-28T16:18:27;4.30;54.03
71627;DHT22;59475;52.464;13.590;2023-02-28T16:20:52;4.14;54.65
71627;DHT22;59475;52.464;13.590;2023-02-28T16:23:17;4.06;54.67
71627;DHT22;59475;52.464;13.590;2023-02-28T16:25:44;3.94;55.96
71627;DHT22;59475;52.464;13.590;2023-02-28T16:28:24;3.83;56.17
71627;DHT22;59475;52.464;13.590;2023-02-28T16:30:53;3.73;56.68
71627;DHT22;59475;52.464;13.590;2023-02-28T16:33:19;3.65;57.80
71627;DHT22;59475;52.464;13.590;2023-02-28T16:35:44;3.58;58.06
71627;DHT22;59475;52.464;13.590;2023-02-28T16:38:09;3.45;58.56
71627;DHT22;59475;52.464;13.590;2023-02-28T16:40:36;3.34;59.32
71627;DHT22;59475;52.464;13.590;2023-02-28T16:43:05;3.21;59.82
71627;DHT22;59475;52.464;13.590;2023-02-28T16:45:32;3.16;60.36
71627;DHT22;59475;52.464;13.590;2023-02-28T16:47:57;3.00;61.14
71627;DHT22;59475;52.464;13.590;2023-02-28T16:50:25;2.88;61.81
71627;DHT22;59475;52.464;13.590;2023-02-28T16:52:51;2.72;62.72
71627;DHT22;59475;52.464;13.590;2023-02-28T16:55:21;2.56;63.72
71627;DHT22;59475;52.464;13.590;2023-02-28T16:57:53;2.40;63.97
71627;DHT22;59475;52.464;13.590;2023-02-28T17:00:19;2.24;64.73
71627;DHT22;59475;52.464;13.590;2023-02-28T17:02:45;2.09;65.80
71627;DHT22;59475;52.464;13.590;2023-02-28T17:05:11;1.97;66.03
71627;DHT22;59475;52.464;13.590;2023-02-28T17:07:37;1.87;66.11
71627;DHT22;59475;52.464;13.590;2023-02-28T17:10:05;1.80;66.06
71627;DHT22;59475;52.464;13.590;2023-02-28T17:12:34;1.70;66.20
71627;DHT22;59475;52.464;13.590;2023-02-28T17:15:00;1.60;66.83
71627;DHT22;59475;52.464;13.590;2023-02-28T17:17:25;1.51;67.38
71627;DHT22;59475;52.464;13.590;2023-02-28T17:19:50;1.35;68.17
71627;DHT22;59475;52.464;13.590;2023-02-28T17:22:16;1.24;70.00
71627;DHT22;59475;52.464;13.590;2023-02-28T17:24:41;1.18;69.56
71627;DHT22;59475;52.464;13.590;2023-02-28T17:27:11;1.04;69.40
71627;DHT22;59475;52.464;13.590;2023-02-28T17:29:37;1.01;69.30
71627;DHT22;59475;52.464;13.590;2023-02-28T17:32:03;0.87;70.28
71627;DHT22;59475;52.464;13.590;2023-02-28T17:34:29;0.76;70.78
71627;DHT22;59475;52.464;13.590;2023-02-28T17:36:54;0.63;71.57
71627;DHT22;59475;52.464;13.590;2023-02-28T17:39:20;0.52;71.40
71627;DHT22;59475;52.464;13.590;2023-02-28T17:41:55;0.41;71.91
71627;DHT22;59475;52.464;13.590;2023-02-28T17:44:23;0.35;73.26
71627;DHT22;59475;52.464;13.590;2023-02-28T17:46:49;0.27;73.84
71627;DHT22;59475;52.464;13.590;2023-02-28T17:49:16;0.17;73.44
71627;DHT22;59475;52.464;13.590;2023-02-28T17:51:42;0.11;73.40
71627;DHT22;59475;52.464;13.590;2023-02-28T17:54:07;0.08;73.69
71627;DHT22;59475;52.464;13.590;2023-02-28T17:56:33;-0.02;73.68
71627;DHT22;59475;52.464;13.590;2023-02-28T17:58:58;-0.10;74.14
71627;DHT22;59475;52.464;13.590;2023-02-28T18:01:24;-0.18;75.45
71627;DHT22;59475;52.464;13.590;2023-02-28T18:03:51;-0.30;75.83
71627;DHT22;59475;52.464;13.590;2023-02-28T18:06:30;-0.32;76.11
71627;DHT22;59475;52.464;13.590;2023-02-28T18:09:01;-0.41;76.34
71627;DHT22;59475;52.464;13.590;2023-02-28T18:11:29;-0.48;75.71
71627;DHT22;59475;52.464;13.590;2023-02-28T18:14:07;-0.52;75.70
71627;DHT22;59475;52.464;13.590;2023-02-28T18:16:33;-0.54;75.51
71627;DHT22;59475;52.464;13.590;2023-02-28T18:18:59;-0.57;75.51
71627;DHT22;59475;52.464;13.590;2023-02-28T18:21:27;-0.58;75.57
71627;DHT22;59475;52.464;13.590;2023-02-28T18:23:53;-0.59;75.36
71627;DHT22;59475;52.464;13.590;2023-02-28T18:26:19;-0.69;75.95
71627;DHT22;59475;52.464;13.590;2023-02-28T18:28:46;-0.75;76.37
71627;DHT22;59475;52.464;13.590;2023-02-28T18:31:14;-0.80;77.40
71627;DHT22;59475;52.464;13.590;2023-02-28T18:33:41;-0.87;77.67
71627;DHT22;59475;52.464;13.590;2023-02-28T18:36:07;-0.93;78.03
71627;DHT22;59475;52.464;13.590;2023-02-28T18:38:32;-0.96;77.66
71627;DHT22;59475;52.464;13.590;2023-02-28T18:41:00;-1.03;78.18